KJAXKSPG

Guest
Details From KJAX - Jacksonville Intl
To KSPG - Albert Whitted
Flight Number -
Tags generated
Created
Modified
Stats Distance 171 nm / 317 km
Max Altitude 14,500 ft / 4,420 m
Waypoints 3
Social Downloads 0
Likes 0
Share VATSIM

Download

Looking for another format? Having issues loading an existing format? Contact us
Advertisement - Login to hide

Notes

Basic altitude profile: - Ascent Rate: 2500ft/min - Ascent Speed: 250kts - Cruise Altitude: 35000ft - Cruise Speed: 420kts - Descent Rate: 1500ft/min - Descent Speed: 250kts Options: - Use NATs: yes - Use PACOTS: yes - Use low airways: yes - Use high airways: yes

Route

KJAX LIMMO KSPG

ID Type Via Altitude Latitude Longitude Leg Dist Tot Dist Heading (true) Name
O KJAX APT - 0 ft / 0 m 30.49304˚ -81.68827˚ - 0 nm - Jacksonville Intl
LIMMO FIX - 14,500 ft / 4,420 m 28.84457˚ -82.23692˚ 103 nm 103 nm 196° / 196° -
O KSPG APT - 0 ft / 0 m 27.76505˚ -82.62674˚ 68 nm 171 nm 198° / 198° Albert Whitted

Altitude Profile

Advertisement - Login to hide

Weather


0- 5 10 15 20 25 30 35+ Temperature / ° C

Clouds and Precipitation
Forecast for 2018-05-22 06:00 UTC. Updated 3 hours ago

Ground ~20,000 ft ~40,000 ft Winds

KJAX

Details ICAO KJAX (JAX)
Name Jacksonville Intl
Region United States
Timezone America/New_York (UTC-4.0)
Stats Elevation 30 ft / 9 m (AMSL)
Location 30.493037° -81.688273°
Runways 2
Magnetic Variation 6.502° W

METAR

KJAX 220756Z 10005KT 10SM FEW014 SCT050 BKN100 BKN250 23/22 A3006 RMK AO2 SLP179 T02280217

Decode

TAF

KJAX 220654Z 2207/2306 13003KT P6SM VCSH SCT010 SCT025 BKN150 TEMPO 2207/2210 BKN025 FM221300 13006KT P6SM VCSH SCT020 BKN150 BKN250 FM221600 14009KT P6SM VCTS SCT020 BKN030CB BKN120 PROB30 2216/2220 VRB15G25KT 3SM +TSRA BR SCT015 BKN025CB OVC050

Decode

Departure Runways

ID Width Length Bearing (true) Bearing (mag) Surface Threshold Offset Overrun Length
08 151 ft / 46 m 9,989 ft / 3,045 m 70.45° 76.95° Concrete 0 ft / 0 m 400 ft / 122 m
14 151 ft / 46 m 7,703 ft / 2,348 m 130.70° 137.20° Concrete 0 ft / 0 m 200 ft / 61 m
26 151 ft / 46 m 9,989 ft / 3,045 m 250.47° 256.97° Concrete 0 ft / 0 m 400 ft / 122 m
32 151 ft / 46 m 7,703 ft / 2,348 m 310.70° 317.20° Concrete 0 ft / 0 m 200 ft / 61 m

KSPG

Details ICAO KSPG (SPG)
Name Albert Whitted
Region United States
Timezone America/New_York (UTC-4.0)
Stats Elevation 7 ft / 2 m (AMSL)
Location 27.765051° -82.626745°
Runways 2
Magnetic Variation 5.510° W

METAR

KSPG 220753Z AUTO 13011KT 10SM FEW032 22/22 A3001 RMK AO2 SLP160 T02220222 $

Decode

TAF

Not found

Destination Runways

ID Width Length Bearing (true) Bearing (mag) Surface Threshold Offset Overrun Length
06 75 ft / 23 m 3,676 ft / 1,120 m 61.97° 67.48° Asphalt 558 ft / 170 m 0 ft / 0 m
18 150 ft / 46 m 2,875 ft / 876 m 179.64° 185.15° Asphalt 0 ft / 0 m 0 ft / 0 m
24 75 ft / 23 m 3,676 ft / 1,120 m 241.98° 247.49° Asphalt 263 ft / 80 m 0 ft / 0 m
36 150 ft / 46 m 2,875 ft / 876 m 359.64° 5.15° Asphalt 0 ft / 0 m 0 ft / 0 m